Time;durP1;ratioP1;P1;durP2;ratioP2;P2;SDS_P1;SDS_P2;PMS_P1;PMS_P2;Temp;Humidity;BMP_temperature;BMP_pressure;BME280_temperature;BME280_humidity;BME280_pressure;Samples;Min_cycle;Max_cycle;Signal;HPM_P1;HPM_P2
2023/06/07 00:00:43;;;;;;;;;;;;;;;;;;;;;
2023/06/07 00:03:42;;;;;;;12.90;9.60;;;;;;;18.39;54.60;100553.20;110684;1266;21982;-85
2023/06/07 00:06:46;;;;;;;8.70;7.90;;;;;;;18.35;54.81;100552.55;110894;1262;21981;-83
2023/06/07 00:10:23;;;;;;;12.90;8.40;;;;;;;18.32;54.97;100555.40;110768;1262;22441;-85
2023/06/07 00:13:42;;;;;;;;;;;;;;;;;;;;;
2023/06/07 00:16:54;;;;;;;10.80;9.10;;;;;;;18.22;55.09;100551.90;110871;1262;21977;-83
2023/06/07 00:20:50;;;;;;;13.10;7.80;;;;;;;18.17;55.06;100552.40;110795;1262;21985;-84
2023/06/07 00:23:49;;;;;;;11.00;8.70;;;;;;;18.10;55.20;100550.54;110512;1265;21831;-84
2023/06/07 00:26:46;;;;;;;15.60;9.40;;;;;;;18.06;55.41;100549.43;110491;1265;23055;-85
2023/06/07 00:30:06;;;;;;;13.60;9.30;;;;;;;17.99;55.56;100549.69;110083;1268;21989;-85
2023/06/07 00:33:40;;;;;;;;;;;;;;;;;;;;;
2023/06/07 00:36:35;;;;;;;13.20;9.80;;;;;;;17.88;55.99;100551.48;110424;1260;21989;-87
2023/06/07 00:40:33;;;;;;;12.30;8.70;;;;;;;17.81;56.12;100549.23;109481;1275;22065;-86
2023/06/07 00:44:18;;;;;;;;;;;;;;;;;;;;;
2023/06/07 00:50:56;;;;;;;10.50;8.70;;;;;;;17.66;56.53;100547.54;109355;1278;21994;-88
2023/06/07 00:53:58;;;;;;;;;;;;;;;;;;;;;
2023/06/07 00:56:43;;;;;;;8.90;8.00;;;;;;;17.61;56.88;100550.55;108716;1286;21996;-86
2023/06/07 00:59:49;;;;;;;14.70;9.00;;;;;;;17.58;56.91;100551.55;108628;1283;23631;-86
2023/06/07 01:02:37;;;;;;;11.40;8.80;;;;;;;17.56;56.95;100546.08;108896;1282;21992;-85
2023/06/07 01:05:14;;;;;;;21.40;9.70;;;;;;;17.53;57.08;100550.14;108698;1283;22081;-87
2023/06/07 01:07:52;;;;;;;12.90;8.10;;;;;;;17.50;57.15;100550.36;108632;1283;21988;-87
2023/06/07 01:10:38;;;;;;;11.10;9.30;;;;;;;17.48;57.52;100554.19;109047;1277;22133;-86
2023/06/07 01:13:45;;;;;;;14.00;9.40;;;;;;;17.43;57.87;100553.98;109262;1274;22450;-86
2023/06/07 01:16:27;;;;;;;;;;;;;;;;;;;;;
2023/06/07 01:19:39;;;;;;;12.90;9.10;;;;;;;17.37;58.23;100551.01;108953;1282;21987;-84
2023/06/07 01:22:50;;;;;;;15.20;12.00;;;;;;;17.34;58.48;100549.93;108866;1282;23718;-85
2023/06/07 01:25:57;;;;;;;;;;;;;;;;;;;;;
2023/06/07 01:29:24;;;;;;;12.70;11.30;;;;;;;17.24;58.93;100548.84;109044;1276;22865;-84
2023/06/07 01:32:31;;;;;;;;;;;;;;;;;;;;;
2023/06/07 01:35:37;;;;;;;14.60;10.50;;;;;;;17.24;59.28;100547.08;110689;1263;23050;-85
2023/06/07 01:39:02;;;;;;;16.00;10.80;;;;;;;17.23;59.26;100545.20;110619;1267;24535;-86
2023/06/07 01:42:07;;;;;;;21.80;12.90;;;;;;;17.23;59.25;100544.31;110126;1270;21989;-84
2023/06/07 01:45:00;;;;;;;14.30;11.50;;;;;;;17.22;59.32;100540.19;109893;1270;21993;-84
2023/06/07 01:48:44;;;;;;;;;;;;;;;;;;;;;
2023/06/07 01:51:56;;;;;;;;;;;;;;;;;;;;;
2023/06/07 01:55:05;;;;;;;15.30;11.00;;;;;;;17.12;59.62;100539.91;110574;1265;22011;-86
2023/06/07 01:58:34;;;;;;;18.50;13.30;;;;;;;17.09;59.72;100539.52;110358;1266;21978;-87
2023/06/07 02:01:49;;;;;;;;;;;;;;;17.07;60.16;100538.64;110929;1265;21981;-88
2023/06/07 02:05:43;;;;;;;17.10;14.00;;;;;;;16.97;60.47;100535.85;110867;1266;21978;-88
2023/06/07 02:09:25;;;;;;;;;;;;;;;;;;;;;
2023/06/07 02:12:41;;;;;;;;;;;;;;;;;;;;;
2023/06/07 02:16:38;;;;;;;16.70;14.70;;;;;;;16.96;60.66;100536.13;111192;1260;22964;-88
2023/06/07 02:19:47;;;;;;;17.10;13.10;;;;;;;16.97;60.78;100540.08;110444;1265;21978;-89
2023/06/07 02:23:16;;;;;;;22.10;15.00;;;;;;;16.98;60.76;100538.83;110626;1265;21960;-87
2023/06/07 02:26:40;;;;;;;;;;;;;;;;;;;;;
2023/06/07 02:29:47;;;;;;;17.20;14.90;;;;;;;16.98;60.74;100545.14;109700;1273;21993;-84
2023/06/07 02:32:56;;;;;;;24.90;16.70;;;;;;;16.95;60.58;100546.18;109255;1278;21961;-84
2023/06/07 02:36:24;;;;;;;19.20;16.60;;;;;;;16.99;60.78;100550.22;109140;1279;22041;-83
2023/06/07 02:38:32;;;;;;;19.70;16.20;;;;;;;17.02;60.65;100547.19;109261;1278;22057;-87
2023/06/07 02:41:41;;;;;;;21.50;17.70;;;;;;;17.01;60.81;100546.89;109327;1278;23122;-86
2023/06/07 02:44:45;;;;;;;28.90;18.80;;;;;;;17.03;60.86;100547.13;109097;1278;21997;-83
2023/06/07 02:47:54;;;;;;;18.40;16.50;;;;;;;17.05;60.77;100547.56;109179;1279;21988;-83
2023/06/07 02:51:03;;;;;;;22.30;17.50;;;;;;;17.05;60.68;100547.88;110682;1260;21962;-84
2023/06/07 02:54:22;;;;;;;;;;;;;;;;;;;;;
2023/06/07 02:57:31;;;;;;;19.70;17.30;;;;;;;17.05;60.70;100553.52;111072;1260;21992;-86
2023/06/07 03:01:54;;;;;;;21.20;16.50;;;;;;;17.07;60.92;100557.63;111196;1259;21964;-85
2023/06/07 03:04:14;;;;;;;21.00;16.90;;;;;;;17.11;61.09;100559.10;110288;1267;21968;-87
2023/06/07 03:07:02;;;;;;;19.50;17.20;;;;;;;17.16;61.02;100561.96;109684;1267;22139;-86
2023/06/07 03:10:03;;;;;;;;;;;;;;;;;;;;;
2023/06/07 03:13:05;;;;;;;26.40;18.80;;;;;;;17.26;61.06;100567.33;109500;1276;23061;-85
2023/06/07 03:15:47;;;;;;;25.80;17.20;;;;;;;17.33;61.12;100567.58;109346;1276;21995;-88
2023/06/07 03:19:00;;;;;;;27.20;17.70;;;;;;;17.36;61.20;100565.12;109184;1280;21992;-87
2023/06/07 03:22:02;;;;;;;23.40;15.40;;;;;;;17.42;61.07;100565.79;108908;1277;22268;-86
2023/06/07 03:25:06;;;;;;;20.30;15.30;;;;;;;17.52;60.88;100564.47;109282;1273;21746;-84
2023/06/07 03:28:10;;;;;;;32.80;29.60;;;;;;;17.54;60.80;100566.79;109546;1273;21996;-86
2023/06/07 03:31:02;;;;;;;;;;;;;;;;;;;;;
2023/06/07 03:34:09;;;;;;;24.70;21.50;;;;;;;17.61;60.46;100567.43;110006;1268;21968;-87
2023/06/07 03:40:25;;;;;;;25.00;19.10;;;;;;;17.76;60.12;100566.64;110122;1267;21969;-86
2023/06/07 03:43:12;;;;;;;24.30;18.10;;;;;;;17.85;60.00;100566.64;110058;1267;22015;-86
2023/06/07 03:46:27;;;;;;;;;;;;;;;;;;;;;
2023/06/07 03:49:26;;;;;;;;;;;;;;;17.96;59.74;100573.11;110311;1267;23088;-86
2023/06/07 03:52:22;;;;;;;25.70;19.60;;;;;;;17.93;59.66;100572.29;110207;1267;22065;-81
2023/06/07 03:55:34;;;;;;;35.20;22.10;;;;;;;17.97;59.60;100573.74;110358;1267;23621;-81
2023/06/07 03:58:28;;;;;;;;;;;;;;;;;;;;;
2023/06/07 04:01:12;;;;;;;22.40;20.20;;;;;;;18.12;59.28;100571.53;109697;1272;22344;-83
2023/06/07 04:03:50;;;;;;;;;;;;;;;18.19;59.04;100572.88;109451;1275;22186;-83
2023/06/07 04:06:32;;;;;;;23.70;19.90;;;;;;;18.15;59.16;100573.80;109499;1274;22424;-82
2023/06/07 04:09:48;;;;;;;26.60;19.50;;;;;;;18.20;59.10;100570.48;109123;1280;23001;-83
2023/06/07 04:12:51;;;;;;;26.60;19.70;;;;;;;18.28;58.92;100572.79;109276;1279;21953;-82
2023/06/07 04:15:45;;;;;;;24.50;21.50;;;;;;;18.34;58.66;100573.07;109221;1279;21985;-84
2023/06/07 04:19:56;;;;;;;31.50;21.30;;;;;;;18.39;58.60;100570.63;109760;1270;22313;-85
2023/06/07 04:23:15;;;;;;;28.10;21.20;;;;;;;18.47;58.86;100568.69;110660;1265;23648;-87
2023/06/07 04:26:58;;;;;;;37.00;21.90;;;;;;;18.61;58.75;100563.55;110730;1259;21960;-88
2023/06/07 04:30:25;;;;;;;25.20;20.90;;;;;;;18.72;58.50;100565.80;110551;1265;21985;-87
2023/06/07 04:33:32;;;;;;;27.60;21.50;;;;;;;18.82;57.85;100565.45;110640;1264;21965;-89
2023/06/07 04:36:31;;;;;;;31.40;22.20;;;;;;;18.92;57.92;100569.91;110666;1262;21964;-88
2023/06/07 04:39:40;;;;;;;26.90;23.30;;;;;;;19.05;58.03;100566.19;110830;1265;22244;-88
2023/06/07 04:43:52;;;;;;;28.10;21.40;;;;;;;19.24;57.82;100565.91;110104;1272;22060;-90
2023/06/07 05:01:55;;;;;;;;;;;;;;;;;;;;;
2023/06/07 05:06:29;;;;;;;20.60;15.10;;;;;;;21.15;55.48;100556.15;109727;1276;22189;-90
2023/06/07 05:18:39;;;;;;;24.30;12.40;;;;;;;23.96;49.37;100559.63;110302;1275;22006;-91
2023/06/07 05:22:17;;;;;;;24.00;13.10;;;;;;;24.53;46.60;100557.74;95649;1273;21773;-90
2023/06/07 05:25:40;;;;;;;19.70;10.90;;;;;;;24.95;45.78;100557.88;110008;1272;22011;-91
2023/06/07 05:29:09;;;;;;;18.20;9.60;;;;;;;25.41;44.31;100554.06;110048;1272;23111;-86
2023/06/07 05:32:30;;;;;;;11.00;9.00;;;;;;;25.53;42.55;100555.71;109485;1264;23041;-85
2023/06/07 05:36:17;;;;;;;;;;;;;;;;;;;;;
2023/06/07 05:40:15;;;;;;;17.10;9.60;;;;;;;25.58;41.40;100556.36;109319;1278;22966;-86
2023/06/07 05:43:18;;;;;;;14.70;8.60;;;;;;;25.61;41.56;100559.46;109218;1278;21981;-86
2023/06/07 05:47:07;;;;;;;;;;;;;;;;;;;;;
2023/06/07 05:50:23;;;;;;;13.00;8.70;;;;;;;25.97;40.44;100564.49;109271;1273;23618;-81
2023/06/07 05:53:38;;;;;;;24.30;10.50;;;;;;;26.02;39.32;100560.38;109295;1272;22426;-83
2023/06/07 05:56:27;;;;;;;18.00;8.50;;;;;;;25.98;39.23;100560.05;109686;1272;22819;-86
2023/06/07 05:59:14;;;;;;;15.20;8.70;;;;;;;26.00;39.03;100559.39;109494;1272;22776;-80
2023/06/07 06:01:57;;;;;;;13.50;8.00;;;;;;;25.95;38.84;100564.66;109323;1272;22336;-82
2023/06/07 06:04:35;;;;;;;16.70;8.00;;;;;;;25.99;38.56;100564.48;109474;1272;21985;-81
2023/06/07 06:07:48;;;;;;;15.10;7.50;;;;;;;26.14;38.48;100562.38;109692;1272;21977;-85
2023/06/07 06:10:46;;;;;;;18.00;8.10;;;;;;;26.48;37.94;100564.69;109269;1264;21999;-88
2023/06/07 06:13:30;;;;;;;10.80;7.30;;;;;;;26.54;37.42;100564.43;109228;1276;21980;-84
2023/06/07 06:16:43;;;;;;;10.70;7.70;;;;;;;26.63;37.32;100566.59;109234;1276;22035;-84
2023/06/07 06:19:54;;;;;;;13.40;6.80;;;;;;;26.68;36.94;100563.38;109288;1276;21978;-84
2023/06/07 06:22:45;;;;;;;10.00;6.90;;;;;;;26.72;36.78;100563.05;109186;1276;22141;-84
2023/06/07 06:25:28;;;;;;;9.90;7.40;;;;;;;26.97;37.10;100563.66;109077;1276;21992;-84
2023/06/07 06:28:39;;;;;;;9.60;7.80;;;;;;;27.38;36.48;100562.60;109184;1264;21959;-83
2023/06/07 06:31:39;;;;;;;8.70;7.10;;;;;;;27.70;35.21;100567.45;109658;1272;22303;-83
2023/06/07 06:34:36;;;;;;;12.60;7.00;;;;;;;27.65;34.65;100568.30;109150;1278;21984;-85
2023/06/07 06:37:35;;;;;;;9.20;7.10;;;;;;;27.80;34.96;100572.28;109182;1278;23802;-85
2023/06/07 06:40:50;;;;;;;;;;;;;;;;;;;;;
2023/06/07 06:43:41;;;;;;;;;;;;;;;;;;;;;
2023/06/07 06:46:49;;;;;;;13.70;6.00;;;;;;;27.88;33.31;100576.43;109125;1279;22903;-85
2023/06/07 06:49:45;;;;;;;;;;;;;;;;;;;;;
2023/06/07 06:53:01;;;;;;;12.60;5.80;;;;;;;28.48;32.50;100578.65;108862;1277;22014;-85
2023/06/07 06:56:14;;;;;;;11.00;6.30;;;;;;;28.57;31.81;100575.49;109024;1283;22002;-86
2023/06/07 06:59:16;;;;;;;7.80;6.10;;;;;;;28.80;31.67;100575.35;108864;1282;23008;-86
2023/06/07 07:02:14;;;;;;;8.90;5.80;;;;;;;29.08;30.85;100579.67;108754;1283;22008;-85
2023/06/07 07:05:05;;;;;;;;;;;;;;;29.04;30.01;100579.48;109044;1277;21966;-84
2023/06/07 07:08:11;;;;;;;;;;;;;;;;;;;;;
2023/06/07 07:11:30;;;;;;;82.80;10.90;;;;;;;29.05;30.09;100578.40;109502;1272;23534;-81
2023/06/07 07:14:09;;;;;;;9.40;5.20;;;;;;;29.06;29.72;100575.07;109593;1272;23196;-80
2023/06/07 07:16:51;;;;;;;13.50;5.50;;;;;;;29.10;29.92;100573.77;109458;1268;21976;-81
2023/06/07 07:19:40;;;;;;;10.60;5.80;;;;;;;29.37;30.44;100574.34;109680;1272;22965;-84
2023/06/07 07:22:22;;;;;;;8.50;4.40;;;;;;;29.62;29.45;100574.75;109589;1273;22050;-86
2023/06/07 07:25:16;;;;;;;8.70;4.70;;;;;;;29.73;29.13;100576.65;109505;1273;23731;-87
2023/06/07 07:28:29;;;;;;;8.30;5.30;;;;;;;29.98;28.79;100579.15;109494;1273;22162;-83
2023/06/07 07:31:33;;;;;;;8.60;5.00;;;;;;;30.11;28.47;100580.16;109076;1271;23120;-83
2023/06/07 07:34:11;;;;;;;6.40;4.10;;;;;;;30.14;27.99;100581.35;109003;1278;21593;-86
2023/06/07 07:37:07;;;;;;;;;;;;;;;;;;;;;
2023/06/07 07:40:06;;;;;;;;;;;;;;;;;;;;;
2023/06/07 07:43:01;;;;;;;9.60;4.50;;;;;;;30.76;27.91;100578.50;109281;1278;22431;-85
2023/06/07 07:45:58;;;;;;;;;;;;;;;;;;;;;
2023/06/07 07:48:49;;;;;;;9.00;4.40;;;;;;;30.91;26.80;100572.64;108872;1279;22369;-85
2023/06/07 07:51:35;;;;;;;6.10;4.00;;;;;;;31.03;26.66;100575.30;108800;1284;23075;-85
2023/06/07 07:54:14;;;;;;;12.60;5.10;;;;;;;31.18;26.11;100572.80;108752;1284;23721;-86
2023/06/07 07:57:12;;;;;;;10.20;4.20;;;;;;;31.16;25.70;100569.05;108395;1290;23081;-86
2023/06/07 08:00:05;;;;;;;7.40;3.80;;;;;;;31.33;26.23;100569.13;108346;1290;21979;-85
2023/06/07 08:02:55;;;;;;;4.50;3.10;;;;;;;31.62;26.23;100573.48;108460;1290;23063;-85
2023/06/07 08:05:46;;;;;;;10.80;3.30;;;;;;;31.64;25.05;100574.34;108361;1290;23151;-87
2023/06/07 08:08:38;;;;;;;10.00;3.30;;;;;;;31.71;25.10;100572.95;108616;1281;23092;-85
2023/06/07 08:11:20;;;;;;;9.10;3.80;;;;;;;31.79;24.26;100573.28;108852;1279;22023;-84
2023/06/07 08:14:05;;;;;;;8.40;3.20;;;;;;;31.71;23.76;100574.92;108835;1279;22127;-83
2023/06/07 08:16:57;;;;;;;4.80;3.20;;;;;;;31.71;23.89;100578.48;107388;1273;2748794;-83
2023/06/07 08:20:01;;;;;;;10.10;3.60;;;;;;;31.64;23.26;100579.23;109469;1273;21978;-86
2023/06/07 08:22:58;;;;;;;5.40;2.90;;;;;;;31.49;23.45;100577.65;108951;1278;22251;-83
2023/06/07 08:25:48;;;;;;;5.30;3.00;;;;;;;31.46;23.18;100579.06;109020;1278;22009;-83
2023/06/07 08:28:55;;;;;;;6.80;3.50;;;;;;;31.41;23.11;100579.19;109172;1278;22026;-83
2023/06/07 08:31:53;;;;;;;;;;;;;;;;;;;;;
2023/06/07 08:34:55;;;;;;;8.70;2.70;;;;;;;31.33;23.31;100574.44;108940;1278;21995;-81
2023/06/07 08:37:41;;;;;;;8.50;3.30;;;;;;;31.56;23.19;100577.39;108942;1278;22000;-83
2023/06/07 08:40:48;;;;;;;10.00;3.70;;;;;;;31.85;22.82;100568.83;108899;1282;21834;-83
2023/06/07 08:43:29;;;;;;;5.50;3.00;;;;;;;32.11;22.73;100573.55;108840;1282;21995;-82
2023/06/07 08:46:32;;;;;;;;;;;;;;;;;;;;;
2023/06/07 08:49:56;;;;;;;3.70;3.30;;;;;;;32.09;22.49;100565.68;108828;1280;23776;-82
2023/06/07 08:52:56;;;;;;;6.80;3.30;;;;;;;32.23;22.42;100566.49;108564;1287;22021;-83
2023/06/07 08:56:33;;;;;;;14.00;4.30;;;;;;;32.18;21.94;100565.71;108970;1281;21992;-86
2023/06/07 08:59:41;;;;;;;4.60;6.20;;;;;;;32.14;22.34;100566.09;108788;1283;22002;-85
2023/06/07 09:02:51;;;;;;;8.40;4.20;;;;;;;32.25;22.30;100562.99;108867;1283;22113;-84
2023/06/07 09:06:21;;;;;;;;;;;;;;;;;;;;;
2023/06/07 09:09:03;;;;;;;8.50;3.60;;;;;;;32.68;21.72;100554.96;108531;1289;22001;-84
2023/06/07 09:12:10;;;;;;;4.10;3.30;;;;;;;32.81;21.72;100556.67;108622;1289;22320;-84
2023/06/07 09:15:40;;;;;;;23.60;4.60;;;;;;;33.03;21.47;100553.34;108358;1289;23950;-83
2023/06/07 09:19:01;;;;;;;20.70;3.90;;;;;;;33.37;21.62;100554.70;108206;1294;21819;-85
2023/06/07 09:22:27;;;;;;;9.70;3.10;;;;;;;33.90;21.20;100552.39;108028;1294;22050;-85
2023/06/07 09:25:18;;;;;;;9.00;3.20;;;;;;;34.27;20.43;100557.85;108081;1294;22011;-86
2023/06/07 09:28:07;;;;;;;5.10;3.10;;;;;;;34.32;19.83;100558.69;107644;1297;22025;-84
2023/06/07 09:31:32;;;;;;;6.00;3.30;;;;;;;34.16;19.96;100564.09;107742;1292;22469;-89
2023/06/07 09:34:28;;;;;;;11.20;3.20;;;;;;;33.83;19.89;100560.05;108446;1292;22009;-83
2023/06/07 09:37:24;;;;;;;;;;;;;;;;;;;;;
2023/06/07 09:41:13;;;;;;;;;;;;;;;;;;;;;
2023/06/07 09:44:00;;;;;;;5.90;2.60;;;;;;;33.45;20.19;100551.29;107833;1291;23793;-81
2023/06/07 09:47:03;;;;;;;5.80;2.70;;;;;;;33.50;19.66;100553.84;107797;1293;22731;-86
2023/06/07 09:49:42;;;;;;;5.40;2.90;;;;;;;33.16;19.80;100548.80;107787;1291;22005;-83
2023/06/07 09:52:15;;;;;;;7.80;3.20;;;;;;;32.99;20.13;100546.86;107880;1295;23628;-83
2023/06/07 09:54:56;;;;;;;7.10;3.00;;;;;;;32.95;20.21;100551.30;108039;1288;22856;-85
2023/06/07 09:57:39;;;;;;;4.90;3.00;;;;;;;33.01;20.25;100547.13;108498;1288;23741;-84
2023/06/07 10:00:32;;;;;;;;;;;;;;;;;;;;;
2023/06/07 10:03:10;;;;;;;4.20;2.80;;;;;;;33.33;20.21;100537.23;108657;1274;23097;-84
2023/06/07 10:06:04;;;;;;;4.70;3.10;;;;;;;33.29;19.89;100542.12;108974;1280;23052;-81
2023/06/07 10:09:14;;;;;;;3.70;2.80;;;;;;;33.18;19.92;100538.75;109024;1280;23072;-84
2023/06/07 10:12:45;;;;;;;;;;;;;;;;;;;;;
2023/06/07 10:16:08;;;;;;;5.60;3.00;;;;;;;33.24;19.68;100538.23;109064;1280;22009;-84
2023/06/07 10:19:28;;;;;;;;;;;;;;;;;;;;;
2023/06/07 10:22:54;;;;;;;;;;;;;;;;;;;;;
2023/06/07 10:26:33;;;;;;;4.50;3.20;;;;;;;32.37;20.23;100523.81;108677;1286;21991;-83
2023/06/07 10:30:19;;;;;;;;;;;;;;;;;;;;;
2023/06/07 10:32:57;;;;;;;7.30;3.50;;;;;;;31.56;20.38;100532.85;108558;1287;22003;-83
2023/06/07 10:36:07;;;;;;;;;;;;;;;;;;;;;
2023/06/07 10:40:05;;;;;;;3.80;2.60;;;;;;;30.89;21.65;100526.04;109098;1278;22060;-80
2023/06/07 10:42:55;;;;;;;11.90;3.40;;;;;;;30.98;21.58;100513.61;109067;1280;22757;-82
2023/06/07 10:46:41;;;;;;;6.00;2.60;;;;;;;31.09;21.26;100512.36;109150;1280;23101;-84
2023/06/07 10:49:51;;;;;;;9.80;3.10;;;;;;;31.00;21.14;100511.58;108934;1280;21984;-81
2023/06/07 10:53:05;;;;;;;4.90;2.90;;;;;;;31.05;21.01;100511.27;108956;1280;24349;-82
2023/06/07 10:56:14;;;;;;;6.80;3.00;;;;;;;31.01;21.12;100512.88;108879;1280;23641;-83
2023/06/07 10:59:19;;;;;;;8.70;3.00;;;;;;;30.90;21.20;100511.02;108965;1273;21993;-83
2023/06/07 11:02:52;;;;;;;;;;;;;;;;;;;;;
2023/06/07 11:06:15;;;;;;;6.10;3.10;;;;;;;30.56;21.57;100512.32;108444;1289;21973;-82
2023/06/07 11:09:25;;;;;;;6.30;3.50;;;;;;;30.26;21.99;100510.42;108421;1289;23068;-83
2023/06/07 11:12:59;;;;;;;6.20;3.00;;;;;;;29.97;22.27;100511.23;108566;1289;21996;-84
2023/06/07 11:16:41;;;;;;;6.30;3.10;;;;;;;29.79;22.42;100511.92;108405;1289;24337;-84
2023/06/07 11:19:59;;;;;;;5.90;3.00;;;;;;;29.44;22.39;100516.12;108213;1294;22877;-85
2023/06/07 11:23:30;;;;;;;4.10;3.10;;;;;;;29.09;23.04;100508.47;108101;1286;23848;-81
2023/06/07 11:26:16;;;;;;;6.30;3.40;;;;;;;29.07;23.31;100513.90;108440;1286;22009;-81
2023/06/07 11:28:57;;;;;;;4.10;2.90;;;;;;;29.13;23.41;100507.73;108702;1286;21881;-86
2023/06/07 11:31:29;;;;;;;5.00;2.90;;;;;;;29.27;22.94;100503.59;108270;1290;22060;-87
2023/06/07 11:34:24;;;;;;;6.60;2.90;;;;;;;29.40;22.78;100499.09;108039;1296;22005;-88
2023/06/07 11:37:32;;;;;;;6.80;3.30;;;;;;;29.59;22.68;100492.36;108118;1295;23747;-87
2023/06/07 11:40:14;;;;;;;10.40;3.30;;;;;;;29.82;22.86;100488.66;108172;1296;22006;-85
2023/06/07 11:42:47;;;;;;;5.30;3.30;;;;;;;30.02;22.83;100492.33;108136;1296;23024;-87
2023/06/07 11:45:23;;;;;;;7.80;3.10;;;;;;;30.11;22.52;100499.70;108123;1296;23695;-87
2023/06/07 11:48:12;;;;;;;8.10;3.40;;;;;;;29.99;22.30;100498.48;108059;1296;22950;-87
2023/06/07 11:50:55;;;;;;;5.70;3.10;;;;;;;29.75;22.32;100497.11;108447;1291;22005;-87
2023/06/07 11:53:57;;;;;;;4.80;3.30;;;;;;;29.53;22.69;100495.60;108609;1283;23056;-86
2023/06/07 11:56:37;;;;;;;5.70;3.50;;;;;;;29.38;22.75;100489.55;108952;1288;22006;-84
2023/06/07 11:59:14;;;;;;;5.60;3.10;;;;;;;29.34;22.94;100488.23;108583;1288;22017;-85
2023/06/07 12:02:16;;;;;;;6.50;3.80;;;;;;;29.32;22.85;100482.63;108630;1288;23666;-86
2023/06/07 12:04:55;;;;;;;4.60;4.20;;;;;;;29.34;22.94;100476.57;108641;1288;21996;-87
2023/06/07 12:07:42;;;;;;;5.30;3.70;;;;;;;29.46;22.89;100476.83;108262;1293;22011;-86
2023/06/07 12:10:33;;;;;;;8.00;4.20;;;;;;;29.57;22.69;100469.81;108342;1292;22842;-85
2023/06/07 12:13:30;;;;;;;7.20;3.30;;;;;;;29.70;22.82;100467.45;108514;1288;21996;-89
2023/06/07 12:16:11;;;;;;;6.80;3.50;;;;;;;29.77;22.36;100466.65;108743;1285;22013;-86
2023/06/07 12:18:52;;;;;;;13.40;4.50;;;;;;;29.73;22.41;100460.85;108857;1285;21850;-85
2023/06/07 12:21:29;;;;;;;11.80;3.10;;;;;;;29.68;22.46;100457.91;108672;1285;22343;-85
2023/06/07 12:24:14;;;;;;;6.80;3.10;;;;;;;29.61;22.44;100457.73;108603;1287;22017;-85
2023/06/07 12:26:56;;;;;;;4.70;3.40;;;;;;;29.54;22.45;100463.23;108730;1286;22024;-85
2023/06/07 12:29:40;;;;;;;4.70;3.20;;;;;;;29.46;22.43;100461.64;108835;1286;22772;-86
2023/06/07 12:32:22;;;;;;;6.00;3.60;;;;;;;29.40;22.71;100455.33;108718;1278;21997;-82
2023/06/07 12:35:05;;;;;;;3.80;3.10;;;;;;;29.42;22.73;100450.44;108751;1286;22003;-85
2023/06/07 12:37:41;;;;;;;3.90;3.20;;;;;;;29.46;22.67;100450.38;108655;1286;22014;-86
2023/06/07 12:40:19;;;;;;;5.30;3.40;;;;;;;29.41;22.38;100450.09;108599;1288;21990;-86
2023/06/07 12:43:01;;;;;;;8.60;4.20;;;;;;;29.30;22.57;100449.35;108779;1285;22008;-86
2023/06/07 12:45:48;;;;;;;4.30;2.80;;;;;;;29.19;22.67;100449.71;108640;1285;22005;-84
2023/06/07 12:48:45;;;;;;;4.70;3.70;;;;;;;29.07;22.80;100445.85;108811;1287;22114;-84
2023/06/07 12:51:40;;;;;;;4.30;3.00;;;;;;;28.96;22.76;100449.08;108715;1287;23772;-88
2023/06/07 12:54:27;;;;;;;4.80;4.00;;;;;;;28.78;22.87;100448.24;108728;1282;22408;-87
2023/06/07 12:57:11;;;;;;;7.70;3.30;;;;;;;28.68;23.21;100447.25;108789;1287;22156;-86
2023/06/07 12:59:51;;;;;;;6.30;4.10;;;;;;;28.62;23.02;100441.66;108868;1284;23039;-87
2023/06/07 13:02:25;;;;;;;5.40;2.70;;;;;;;28.64;23.09;100437.86;108767;1284;22066;-86
2023/06/07 13:05:06;;;;;;;4.70;3.80;;;;;;;28.71;22.93;100432.36;108650;1284;23762;-86
2023/06/07 13:07:47;;;;;;;5.20;3.70;;;;;;;28.82;22.82;100426.34;109057;1280;21984;-86
2023/06/07 13:10:19;;;;;;;7.30;3.30;;;;;;;28.97;22.74;100428.80;109033;1280;23025;-86
2023/06/07 13:12:51;;;;;;;6.50;3.10;;;;;;;29.10;22.42;100425.73;108909;1285;22030;-86
2023/06/07 13:15:35;;;;;;;6.80;3.70;;;;;;;29.20;22.17;100421.66;108651;1286;22771;-85
2023/06/07 13:18:18;;;;;;;10.50;4.10;;;;;;;29.24;22.24;100417.52;108818;1286;21991;-85
2023/06/07 13:21:10;;;;;;;6.70;3.40;;;;;;;29.31;22.09;100416.80;108969;1285;22266;-89
2023/06/07 13:23:55;;;;;;;5.40;3.50;;;;;;;29.28;22.04;100418.58;108863;1286;22009;-86
2023/06/07 13:26:50;;;;;;;6.10;3.60;;;;;;;29.15;22.04;100416.10;108655;1287;23055;-86
2023/06/07 13:30:10;;;;;;;6.60;3.60;;;;;;;29.00;22.30;100417.61;108347;1294;22006;-87
2023/06/07 13:32:54;;;;;;;8.10;3.80;;;;;;;28.93;22.65;100417.15;108635;1291;22107;-83
2023/06/07 13:35:31;;;;;;;5.60;3.00;;;;;;;28.94;22.62;100413.29;108223;1282;23104;-87
2023/06/07 13:38:05;;;;;;;6.00;3.10;;;;;;;28.98;22.80;100415.53;107702;1295;22016;-85
2023/06/07 13:40:51;;;;;;;7.00;3.60;;;;;;;28.94;22.58;100413.48;108194;1295;22115;-87
2023/06/07 13:43:23;;;;;;;9.70;3.50;;;;;;;28.94;22.64;100412.04;108330;1292;22020;-86
2023/06/07 13:46:18;;;;;;;14.40;3.10;;;;;;;28.98;22.84;100414.77;108382;1292;23704;-87
2023/06/07 13:49:07;;;;;;;5.50;3.20;;;;;;;28.93;22.66;100410.20;107522;1300;22039;-86
2023/06/07 13:51:35;;;;;;;9.30;2.90;;;;;;;28.92;22.74;100403.89;107540;1300;22957;-88
2023/06/07 13:54:19;;;;;;;4.10;3.10;;;;;;;28.96;22.79;100404.40;107600;1297;22016;-86
2023/06/07 13:56:52;;;;;;;5.90;3.10;;;;;;;29.04;22.62;100397.14;107546;1300;22017;-85
2023/06/07 13:59:25;;;;;;;10.10;4.50;;;;;;;29.07;22.46;100389.15;107565;1295;22008;-86
2023/06/07 14:02:19;;;;;;;30.30;5.80;;;;;;;29.15;22.41;100385.61;108239;1295;21980;-86
2023/06/07 14:04:57;;;;;;;9.20;6.80;;;;;;;29.23;22.13;100386.52;107986;1295;22768;-85
2023/06/07 14:07:45;;;;;;;5.00;3.40;;;;;;;29.28;21.88;100385.98;108416;1283;23039;-86
2023/06/07 14:10:32;;;;;;;6.40;3.70;;;;;;;29.33;22.03;100388.98;108751;1284;22008;-85
2023/06/07 14:13:14;;;;;;;4.60;2.70;;;;;;;29.33;21.84;100386.10;108901;1284;22062;-84
2023/06/07 14:16:12;;;;;;;4.30;3.20;;;;;;;29.19;22.10;100383.69;108685;1284;23689;-85
2023/06/07 14:18:58;;;;;;;;;;;;;;;;;;;;;
2023/06/07 14:21:35;;;;;;;3.30;2.90;;;;;;;28.97;22.06;100391.05;109198;1277;23704;-85
2023/06/07 14:24:27;;;;;;;5.70;3.30;;;;;;;28.85;21.98;100389.99;109020;1277;22907;-85
2023/06/07 14:27:24;;;;;;;5.70;3.10;;;;;;;28.79;22.18;100383.45;109120;1277;23145;-84
2023/06/07 14:30:03;;;;;;;6.60;3.10;;;;;;;28.79;22.21;100381.63;109049;1278;22080;-86
2023/06/07 14:32:48;;;;;;;5.60;2.90;;;;;;;28.77;22.14;100372.20;109374;1277;23093;-85
2023/06/07 14:36:29;;;;;;;6.90;3.20;;;;;;;28.76;22.26;100372.68;109181;1276;23042;-83
2023/06/07 14:39:10;;;;;;;4.70;2.90;;;;;;;28.79;22.32;100373.60;108936;1284;22635;-84
2023/06/07 14:42:27;;;;;;;3.40;2.80;;;;;;;28.75;22.33;100372.33;108925;1283;22012;-88
2023/06/07 14:45:26;;;;;;;7.50;3.20;;;;;;;28.77;22.30;100370.09;108878;1287;23055;-87
2023/06/07 14:48:33;;;;;;;10.10;3.50;;;;;;;28.82;22.38;100366.30;108934;1287;23740;-88
2023/06/07 14:51:26;;;;;;;4.30;3.30;;;;;;;28.85;22.32;100367.23;108594;1287;21919;-87
2023/06/07 14:54:28;;;;;;;;;;;;;;;;;;;;;
2023/06/07 14:57:17;;;;;;;7.20;2.90;;;;;;;28.83;22.25;100371.89;109008;1278;21993;-86
2023/06/07 15:00:32;;;;;;;4.80;3.60;;;;;;;28.81;22.12;100372.82;109168;1278;21968;-86
2023/06/07 15:03:42;;;;;;;5.60;4.10;;;;;;;28.80;22.06;100376.55;109464;1273;22545;-85
2023/06/07 15:06:19;;;;;;;5.70;3.50;;;;;;;28.81;22.20;100377.82;109671;1273;22368;-86
2023/06/07 15:09:03;;;;;;;6.70;4.20;;;;;;;28.84;22.29;100372.51;109393;1276;22460;-84
2023/06/07 15:12:04;;;;;;;6.80;2.80;;;;;;;28.88;22.31;100373.13;109198;1276;21983;-86
2023/06/07 15:15:21;;;;;;;6.50;3.70;;;;;;;28.88;22.15;100372.05;109503;1276;21971;-86
2023/06/07 15:18:20;;;;;;;4.30;3.60;;;;;;;28.89;22.17;100366.94;109444;1264;22723;-86
2023/06/07 15:21:32;;;;;;;4.50;3.30;;;;;;;28.94;22.06;100364.39;109040;1280;23078;-86
2023/06/07 15:25:10;;;;;;;;;;;;;;;;;;;;;
2023/06/07 15:29:11;;;;;;;;;;;;;;;;;;;;;
2023/06/07 15:32:19;;;;;;;7.40;3.20;;;;;;;28.90;22.21;100364.52;108701;1287;22088;-87
2023/06/07 15:35:32;;;;;;;4.20;2.50;;;;;;;28.89;22.17;100356.59;108201;1293;23104;-86